Time;durP1;ratioP1;P1;durP2;ratioP2;P2;SDS_P1;SDS_P2;PMS_P1;PMS_P2;Temp;Humidity;BMP_temperature;BMP_pressure;BME280_temperature;BME280_humidity;BME280_pressure;Samples;Min_cycle;Max_cycle;Signal;HPM_P1;HPM_P2
2022/07/03 00:01:54;;;;;;;1.23;1.02;;;19.70;90.60;;;;;;5046442;28;20033;-73
2022/07/03 00:04:20;;;;;;;1.95;0.98;;;19.70;90.70;;;;;;5029930;28;20029;-73
2022/07/03 00:06:46;;;;;;;1.95;0.90;;;19.70;90.90;;;;;;5047172;28;20397;-73
2022/07/03 00:09:12;;;;;;;1.92;1.30;;;19.60;90.90;;;;;;5045466;28;20486;-73
2022/07/03 00:11:38;;;;;;;1.35;0.80;;;19.60;91.00;;;;;;5031447;28;20021;-73
2022/07/03 00:14:04;;;;;;;20.13;1.60;;;19.60;91.00;;;;;;5031533;28;20422;-75
2022/07/03 00:16:29;;;;;;;3.42;1.15;;;19.60;91.10;;;;;;5031399;28;20060;-73
2022/07/03 00:18:55;;;;;;;2.00;1.23;;;19.50;91.20;;;;;;5030406;28;20037;-74
2022/07/03 00:21:31;;;;;;;4.20;1.30;;;19.50;91.30;;;;;;5026874;28;20030;-74
2022/07/03 00:24:07;;;;;;;1.63;1.52;;;19.50;91.40;;;;;;5040119;28;20040;-74
2022/07/03 00:26:35;;;;;;;3.58;0.90;;;19.50;91.40;;;;;;5045609;28;20025;-74
2022/07/03 00:29:02;;;;;;;3.40;1.30;;;19.40;91.50;;;;;;5026977;28;20033;-74
2022/07/03 00:31:32;;;;;;;3.65;1.10;;;19.40;91.60;;;;;;5029896;28;20108;-74
2022/07/03 00:33:59;;;;;;;2.47;1.20;;;19.40;91.70;;;;;;5031003;28;20021;-74
2022/07/03 00:36:28;;;;;;;2.13;0.93;;;19.40;91.70;;;;;;5029715;28;20381;-74
2022/07/03 00:38:54;;;;;;;3.13;1.35;;;19.40;91.80;;;;;;5031487;28;20056;-74
2022/07/03 00:41:32;;;;;;;2.20;1.35;;;19.40;91.90;;;;;;5030782;28;20064;-74
2022/07/03 00:43:58;;;;;;;4.18;1.30;;;19.40;92.00;;;;;;5031664;28;20036;-75
2022/07/03 00:46:25;;;;;;;3.47;1.63;;;19.30;92.10;;;;;;5026290;28;20021;-74
2022/07/03 00:48:52;;;;;;;2.10;1.30;;;19.30;92.20;;;;;;5028651;28;20033;-74
2022/07/03 00:51:24;;;;;;;1.60;1.20;;;19.30;92.50;;;;;;5042508;28;20087;-74
2022/07/03 00:53:58;;;;;;;2.90;1.40;;;19.30;92.70;;;;;;5027823;28;20030;-75
2022/07/03 00:56:28;;;;;;;4.68;1.17;;;19.20;92.80;;;;;;5029805;28;20031;-74
2022/07/03 00:58:58;;;;;;;1.20;1.05;;;19.20;92.90;;;;;;5024586;28;20025;-74
2022/07/03 01:01:32;;;;;;;1.52;1.10;;;19.10;92.80;;;;;;5027301;28;20029;-75
2022/07/03 01:04:26;;;;;;;2.47;1.00;;;19.10;93.00;;;;;;5041068;28;20446;-73
2022/07/03 01:07:00;;;;;;;2.13;1.30;;;19.10;93.00;;;;;;5022259;28;20132;-73
2022/07/03 01:09:51;;;;;;;2.35;1.27;;;19.00;93.20;;;;;;5027748;28;20025;-73
2022/07/03 01:12:31;;;;;;;1.30;1.15;;;19.00;93.50;;;;;;5028141;28;20029;-74
2022/07/03 01:15:43;;;;;;;2.08;1.50;;;19.00;93.80;;;;;;5043998;28;20029;-74
2022/07/03 01:18:28;;;;;;;4.03;1.60;;;19.00;94.10;;;;;;5005349;28;20041;-74
2022/07/03 01:21:05;;;;;;;1.92;1.58;;;18.90;94.20;;;;;;5028974;28;20647;-74
2022/07/03 01:23:55;;;;;;;3.72;1.60;;;18.90;94.30;;;;;;5028512;28;20025;-74
2022/07/03 01:26:26;;;;;;;4.72;1.40;;;18.80;94.40;;;;;;5031619;28;20588;-75
2022/07/03 01:28:52;;;;;;;2.60;1.30;;;18.80;94.50;;;;;;5026057;28;20452;-74
2022/07/03 01:31:22;;;;;;;3.13;1.33;;;18.80;94.60;;;;;;5033833;28;20124;-75
2022/07/03 01:33:50;;;;;;;2.50;1.42;;;18.70;94.60;;;;;;5033121;28;20108;-75
2022/07/03 01:36:17;;;;;;;4.45;1.52;;;18.70;94.60;;;;;;5030106;28;20029;-74
2022/07/03 01:38:44;;;;;;;1.90;1.30;;;18.70;94.70;;;;;;5032621;28;20397;-74
2022/07/03 01:41:12;;;;;;;3.40;1.70;;;18.70;94.80;;;;;;5034604;28;20052;-75
2022/07/03 01:43:49;;;;;;;2.00;1.10;;;18.60;94.80;;;;;;5032946;28;20394;-75
2022/07/03 01:46:20;;;;;;;1.30;0.90;;;18.60;94.90;;;;;;5030929;28;20029;-74
2022/07/03 01:48:48;;;;;;;1.75;1.30;;;18.60;94.90;;;;;;5026414;28;20049;-75
2022/07/03 01:51:16;;;;;;;1.65;1.08;;;18.60;95.00;;;;;;5035157;28;20022;-75
2022/07/03 01:53:48;;;;;;;2.25;1.60;;;18.60;95.20;;;;;;5031490;28;20025;-75
2022/07/03 01:56:16;;;;;;;2.97;1.75;;;18.50;95.60;;;;;;5031722;28;20046;-74
2022/07/03 01:58:42;;;;;;;3.35;2.00;;;18.50;96.00;;;;;;5032509;28;20644;-74
2022/07/03 02:01:19;;;;;;;5.55;2.10;;;18.40;96.50;;;;;;5033278;28;20096;-74
2022/07/03 02:04:23;;;;;;;3.63;2.75;;;18.40;96.90;;;;;;5031326;28;20032;-75
2022/07/03 02:07:06;;;;;;;5.57;2.55;;;18.30;97.50;;;;;;5031141;28;20146;-74
2022/07/03 02:09:47;;;;;;;4.85;2.30;;;18.20;97.90;;;;;;5027662;28;20033;-73
2022/07/03 02:12:17;;;;;;;4.10;2.00;;;18.20;98.40;;;;;;5033809;28;20037;-75
2022/07/03 02:14:54;;;;;;;3.30;2.05;;;18.10;98.70;;;;;;5050222;28;20103;-75
2022/07/03 02:17:21;;;;;;;3.65;2.17;;;18.10;99.10;;;;;;5029978;28;20030;-74
2022/07/03 02:20:16;;;;;;;3.05;1.77;;;18.10;99.30;;;;;;5030696;28;20747;-75
2022/07/03 02:22:42;;;;;;;3.58;1.60;;;18.00;99.30;;;;;;5015038;28;20037;-74
2022/07/03 02:25:18;;;;;;;1.95;1.30;;;18.00;99.00;;;;;;5029656;28;20044;-73
2022/07/03 02:28:20;;;;;;;2.67;1.45;;;18.00;98.90;;;;;;5030768;28;20505;-73
2022/07/03 02:30:54;;;;;;;2.08;1.30;;;18.00;99.00;;;;;;5028782;28;20083;-73
2022/07/03 02:33:25;;;;;;;3.10;1.15;;;18.00;99.10;;;;;;5031223;28;20111;-73
2022/07/03 02:35:54;;;;;;;1.90;1.13;;;18.00;99.40;;;;;;5028068;28;20136;-73
2022/07/03 02:38:21;;;;;;;1.50;1.25;;;17.90;99.20;;;;;;5028564;28;20355;-72
2022/07/03 02:40:52;;;;;;;2.72;1.25;;;17.90;99.40;;;;;;5031596;28;20026;-72
2022/07/03 02:43:23;;;;;;;2.10;1.30;;;17.90;99.50;;;;;;5030862;28;20044;-72
2022/07/03 02:46:48;;;;;;;3.03;1.27;;;17.90;99.50;;;;;;5027947;28;20087;-72
2022/07/03 02:48:51;;;;;;;1.40;1.08;;;17.90;99.60;;;;;;5030642;28;20057;-72
2022/07/03 02:51:22;;;;;;;2.55;1.35;;;17.90;99.60;;;;;;5028076;28;20425;-72
2022/07/03 02:54:01;;;;;;;1.75;1.27;;;17.80;99.80;;;;;;5030975;28;20070;-73
2022/07/03 02:57:06;;;;;;;2.28;1.30;;;17.80;99.90;;;;;;5028005;28;20389;-73
2022/07/03 02:59:51;;;;;;;3.03;1.38;;;17.80;99.90;;;;;;5022500;28;20452;-72
2022/07/03 03:02:22;;;;;;;4.78;1.33;;;17.80;99.90;;;;;;5031509;28;20076;-73
2022/07/03 03:05:20;;;;;;;2.88;1.17;;;17.80;99.90;;;;;;5029079;28;20477;-73
2022/07/03 03:08:07;;;;;;;2.97;1.00;;;17.80;99.90;;;;;;5027238;28;20029;-72
2022/07/03 03:10:37;;;;;;;1.70;1.27;;;17.70;99.90;;;;;;5027094;28;20040;-73
2022/07/03 03:13:09;;;;;;;3.03;1.85;;;17.70;99.90;;;;;;5029844;28;20021;-74
2022/07/03 03:15:36;;;;;;;4.45;2.35;;;17.70;99.90;;;;;;5027479;28;20064;-73
2022/07/03 03:18:05;;;;;;;5.88;3.03;;;17.70;99.90;;;;;;5033281;28;20036;-74
2022/07/03 03:20:33;;;;;;;7.75;3.92;;;17.70;99.90;;;;;;5026304;28;20033;-74
2022/07/03 03:23:37;;;;;;;4.40;3.50;;;17.70;99.90;;;;;;5029672;28;20039;-73
2022/07/03 03:26:03;;;;;;;5.70;2.95;;;17.60;99.90;;;;;;5023807;28;20064;-74
2022/07/03 03:28:30;;;;;;;3.15;2.67;;;17.50;99.90;;;;;;5027940;28;20040;-74
2022/07/03 03:30:55;;;;;;;5.57;2.80;;;17.50;99.90;;;;;;5031465;28;20083;-74
2022/07/03 03:33:22;;;;;;;4.95;3.10;;;17.50;99.90;;;;;;5027276;28;20037;-73
2022/07/03 03:35:48;;;;;;;4.22;2.60;;;17.40;99.90;;;;;;5027583;28;20053;-73
2022/07/03 03:38:14;;;;;;;2.75;2.25;;;17.40;99.90;;;;;;5028856;28;20588;-73
2022/07/03 03:40:40;;;;;;;3.50;2.30;;;17.30;99.90;;;;;;5027706;28;20030;-73
2022/07/03 03:43:06;;;;;;;3.97;1.73;;;17.30;99.90;;;;;;5029211;28;20359;-73
2022/07/03 03:45:31;;;;;;;2.17;1.63;;;17.20;99.90;;;;;;5029823;28;20546;-73
2022/07/03 03:47:57;;;;;;;2.42;1.80;;;17.20;99.90;;;;;;5030693;28;20017;-74
2022/07/03 03:50:24;;;;;;;2.40;1.50;;;17.20;99.90;;;;;;5030493;28;20362;-73
2022/07/03 03:52:49;;;;;;;3.03;1.48;;;17.20;99.90;;;;;;5029520;28;20021;-73
2022/07/03 03:55:15;;;;;;;6.25;1.73;;;17.20;99.90;;;;;;5025059;28;20163;-73
2022/07/03 03:57:41;;;;;;;4.13;1.35;;;17.20;99.90;;;;;;5027580;28;20026;-74
2022/07/03 04:00:07;;;;;;;1.63;1.20;;;17.20;99.90;;;;;;5030708;28;20022;-74
2022/07/03 04:02:33;;;;;;;1.98;1.60;;;17.20;99.90;;;;;;5045101;28;20510;-74
2022/07/03 04:04:59;;;;;;;2.67;1.30;;;17.20;99.90;;;;;;5030205;28;20037;-73
2022/07/03 04:07:25;;;;;;;2.53;1.50;;;17.20;99.90;;;;;;5028428;28;20026;-73
2022/07/03 04:09:50;;;;;;;2.40;1.63;;;17.20;99.90;;;;;;5027110;28;20391;-74
2022/07/03 04:12:16;;;;;;;3.28;1.35;;;17.20;99.90;;;;;;5029099;28;20429;-74
2022/07/03 04:14:42;;;;;;;2.15;1.42;;;17.20;99.90;;;;;;5030378;28;20505;-73
2022/07/03 04:17:07;;;;;;;3.83;1.70;;;17.20;99.90;;;;;;5028973;28;20052;-74
2022/07/03 04:19:34;;;;;;;2.30;1.50;;;17.20;99.90;;;;;;5027084;28;20022;-73
2022/07/03 04:21:59;;;;;;;2.80;1.40;;;17.20;99.90;;;;;;5028290;28;20401;-74
2022/07/03 04:24:25;;;;;;;2.28;1.65;;;17.30;99.90;;;;;;5029780;28;20096;-74
2022/07/03 04:26:51;;;;;;;2.22;1.33;;;17.30;99.90;;;;;;5026869;28;20026;-74
2022/07/03 04:29:16;;;;;;;2.58;1.42;;;17.40;99.90;;;;;;5029543;28;20025;-73
2022/07/03 04:31:42;;;;;;;3.53;1.48;;;17.50;99.90;;;;;;5023731;28;20029;-74
2022/07/03 04:34:08;;;;;;;2.20;1.48;;;17.60;99.90;;;;;;5040959;28;20040;-74
2022/07/03 04:36:34;;;;;;;1.58;1.23;;;17.60;99.90;;;;;;5029280;28;20037;-73
2022/07/03 04:38:59;;;;;;;1.95;1.33;;;17.80;99.90;;;;;;5031502;28;20108;-74
2022/07/03 04:41:25;;;;;;;3.05;1.35;;;17.90;99.90;;;;;;5028769;28;20032;-73
2022/07/03 04:43:50;;;;;;;2.28;1.42;;;18.00;99.90;;;;;;5026024;28;20405;-69
2022/07/03 04:46:16;;;;;;;2.20;1.48;;;18.20;99.90;;;;;;5028124;28;20525;-75
2022/07/03 04:48:42;;;;;;;4.35;1.55;;;18.30;99.90;;;;;;5027185;28;20022;-75
2022/07/03 04:51:07;;;;;;;5.82;1.70;;;18.50;99.90;;;;;;5028471;28;20018;-73
2022/07/03 04:53:33;;;;;;;4.75;2.38;;;18.60;99.90;;;;;;5023921;28;20395;-73
2022/07/03 04:55:59;;;;;;;4.72;2.00;;;18.80;99.90;;;;;;5024078;28;20584;-74
2022/07/03 04:58:25;;;;;;;2.83;2.33;;;18.90;99.90;;;;;;5026859;28;20482;-74
2022/07/03 05:00:51;;;;;;;3.35;2.55;;;19.10;99.90;;;;;;5026030;28;20026;-69
2022/07/03 05:03:16;;;;;;;6.60;2.20;;;19.30;99.90;;;;;;5020876;28;20052;-73
2022/07/03 05:05:42;;;;;;;3.30;2.42;;;19.40;99.90;;;;;;5024487;28;20477;-74
2022/07/03 05:08:08;;;;;;;5.63;2.55;;;19.60;99.90;;;;;;5024757;28;20415;-73
2022/07/03 05:10:33;;;;;;;4.20;2.30;;;19.80;99.90;;;;;;5028129;28;20036;-73
2022/07/03 05:12:59;;;;;;;5.00;2.03;;;19.90;99.90;;;;;;5027734;28;20482;-66
2022/07/03 05:15:25;;;;;;;5.10;2.60;;;20.10;99.90;;;;;;5030637;28;20029;-66
2022/07/03 05:17:50;;;;;;;5.63;2.33;;;20.20;99.90;;;;;;5026538;28;20029;-66
2022/07/03 05:20:25;;;;;;;2.80;2.00;;;20.40;99.90;;;;;;5020651;28;20037;-66
2022/07/03 05:22:52;;;;;;;6.53;2.55;;;20.40;99.90;;;;;;5027658;28;20057;-66
2022/07/03 05:25:18;;;;;;;4.38;2.60;;;20.60;99.90;;;;;;5051490;28;20120;-64
2022/07/03 05:27:44;;;;;;;3.60;2.42;;;20.70;99.90;;;;;;5027495;28;20032;-66
2022/07/03 05:30:10;;;;;;;5.35;2.55;;;20.80;99.90;;;;;;5038459;28;20436;-77
2022/07/03 05:32:36;;;;;;;3.05;1.85;;;20.90;99.90;;;;;;5041604;28;20482;-75
2022/07/03 05:35:03;;;;;;;3.88;1.63;;;21.00;99.90;;;;;;5034983;28;20029;-74
2022/07/03 05:37:29;;;;;;;3.25;1.60;;;21.10;99.90;;;;;;5028790;28;20493;-74
2022/07/03 05:39:54;;;;;;;2.63;1.70;;;21.30;99.50;;;;;;5031072;28;20107;-76
2022/07/03 05:42:20;;;;;;;3.05;1.42;;;21.40;99.30;;;;;;5024171;28;20642;-77
2022/07/03 05:44:46;;;;;;;1.83;1.27;;;21.50;99.00;;;;;;5030391;28;20026;-76
2022/07/03 05:47:11;;;;;;;1.42;1.27;;;21.60;98.60;;;;;;5027738;28;20089;-76
2022/07/03 05:49:37;;;;;;;1.73;1.35;;;21.80;98.40;;;;;;5026477;28;20030;-69
2022/07/03 05:52:03;;;;;;;1.75;1.50;;;21.90;98.20;;;;;;5028691;28;20049;-74
2022/07/03 05:54:28;;;;;;;3.50;1.60;;;22.00;98.10;;;;;;5029739;28;20022;-75
2022/07/03 05:56:54;;;;;;;3.20;1.58;;;22.10;97.80;;;;;;5086625;23;20049;-72
2022/07/03 05:59:20;;;;;;;2.33;1.52;;;22.30;97.60;;;;;;5061176;28;20035;-72
2022/07/03 06:01:45;;;;;;;2.65;1.48;;;22.40;97.30;;;;;;5062385;28;20033;-71
2022/07/03 06:04:11;;;;;;;3.33;1.50;;;22.60;97.00;;;;;;5062770;28;20052;-71
2022/07/03 06:06:37;;;;;;;1.98;1.30;;;22.60;96.70;;;;;;5053462;28;20028;-73
2022/07/03 06:09:03;;;;;;;3.28;1.40;;;22.80;96.50;;;;;;5048463;28;20075;-73
2022/07/03 06:11:29;;;;;;;1.40;1.20;;;22.90;96.20;;;;;;5030724;28;20025;-71
2022/07/03 06:13:54;;;;;;;1.60;1.20;;;22.90;96.10;;;;;;5046860;28;20044;-72
2022/07/03 06:16:20;;;;;;;1.80;1.30;;;23.00;96.00;;;;;;5047096;28;20033;-72
2022/07/03 06:18:46;;;;;;;3.83;1.25;;;23.10;95.90;;;;;;5049148;28;20472;-72
2022/07/03 06:21:11;;;;;;;3.35;1.65;;;23.20;95.80;;;;;;5034483;28;20098;-71
2022/07/03 06:23:37;;;;;;;2.28;1.10;;;23.20;95.60;;;;;;5042187;28;20119;-71
2022/07/03 06:26:03;;;;;;;1.98;1.30;;;23.40;95.50;;;;;;5047695;28;20029;-72
2022/07/03 06:28:28;;;;;;;1.67;1.17;;;23.40;95.10;;;;;;5049602;28;20500;-71
2022/07/03 06:30:54;;;;;;;1.23;1.08;;;23.50;95.00;;;;;;5045742;28;20037;-72
2022/07/03 06:33:19;;;;;;;1.73;1.20;;;23.60;95.00;;;;;;5046305;28;20029;-72
2022/07/03 06:35:45;;;;;;;1.70;1.00;;;23.70;94.50;;;;;;5050078;28;20051;-72
2022/07/03 06:38:11;;;;;;;2.38;1.17;;;23.80;94.30;;;;;;5057228;28;20035;-72
2022/07/03 06:40:36;;;;;;;1.23;1.08;;;24.00;94.40;;;;;;5049022;28;20388;-72
2022/07/03 06:43:02;;;;;;;4.78;1.52;;;24.10;94.10;;;;;;5049337;28;20032;-72
2022/07/03 06:45:28;;;;;;;1.30;1.20;;;24.30;94.00;;;;;;5038449;28;20053;-73
2022/07/03 06:47:53;;;;;;;2.28;1.10;;;24.30;93.90;;;;;;5055538;28;20012;-73
2022/07/03 06:50:19;;;;;;;2.65;1.17;;;24.40;93.80;;;;;;5049463;28;20028;-73
2022/07/03 06:52:44;;;;;;;2.97;1.38;;;24.40;93.60;;;;;;5051484;28;20060;-73
2022/07/03 06:55:10;;;;;;;4.63;1.45;;;24.40;93.10;;;;;;5055923;28;20414;-72
2022/07/03 06:57:36;;;;;;;1.98;1.23;;;24.40;92.90;;;;;;5059621;28;20401;-73
2022/07/03 07:00:01;;;;;;;5.55;1.52;;;24.40;92.90;;;;;;5050332;28;20732;-73
2022/07/03 07:02:27;;;;;;;3.13;1.20;;;24.40;93.00;;;;;;5054059;28;20037;-73
2022/07/03 07:04:53;;;;;;;1.52;1.20;;;24.50;92.80;;;;;;5049759;28;20059;-73
2022/07/03 07:07:18;;;;;;;5.25;1.45;;;24.40;92.60;;;;;;5058803;28;20033;-72
2022/07/03 07:09:44;;;;;;;2.63;1.10;;;24.30;92.70;;;;;;5053458;28;20075;-73
2022/07/03 07:12:10;;;;;;;1.92;1.30;;;24.30;92.70;;;;;;5053466;28;20025;-74
2022/07/03 07:14:36;;;;;;;2.80;1.20;;;24.20;92.80;;;;;;5052989;28;20021;-73
2022/07/03 07:17:01;;;;;;;3.38;1.35;;;24.20;92.90;;;;;;5046674;28;20441;-73
2022/07/03 07:19:27;;;;;;;2.03;1.20;;;24.10;93.10;;;;;;5045576;28;20048;-72
2022/07/03 07:21:53;;;;;;;1.75;1.02;;;24.20;92.90;;;;;;5054212;28;20021;-72
2022/07/03 07:24:18;;;;;;;2.08;1.38;;;24.10;92.60;;;;;;5058926;28;20037;-73
2022/07/03 07:26:44;;;;;;;1.00;0.90;;;24.20;92.30;;;;;;5057962;28;20451;-73
2022/07/03 07:29:10;;;;;;;1.88;1.10;;;24.20;92.00;;;;;;5049260;28;20053;-72
2022/07/03 07:31:35;;;;;;;6.47;1.00;;;24.20;91.70;;;;;;5052803;28;20465;-74
2022/07/03 07:34:04;;;;;;;2.17;1.20;;;24.20;91.70;;;;;;5048373;28;20032;-73
2022/07/03 07:36:30;;;;;;;2.67;1.15;;;24.20;92.00;;;;;;5047385;28;20052;-73
2022/07/03 07:38:55;;;;;;;1.15;0.82;;;24.20;91.80;;;;;;5051134;28;20040;-77
2022/07/03 07:41:21;;;;;;;1.33;1.00;;;24.20;91.60;;;;;;5050828;28;20032;-76
2022/07/03 07:43:47;;;;;;;2.88;1.10;;;24.30;91.40;;;;;;5053245;28;20033;-76
2022/07/03 07:46:12;;;;;;;3.67;0.85;;;24.30;91.10;;;;;;5053482;28;20481;-77
2022/07/03 07:48:38;;;;;;;1.65;0.85;;;24.30;90.40;;;;;;5054768;28;20032;-74
2022/07/03 07:51:04;;;;;;;0.77;0.70;;;24.40;89.90;;;;;;5035390;28;20024;-72
2022/07/03 07:53:30;;;;;;;3.30;0.85;;;24.40;89.40;;;;;;5055269;28;20481;-74
2022/07/03 07:55:55;;;;;;;2.95;1.08;;;24.50;89.10;;;;;;5058412;28;20111;-73
2022/07/03 07:58:22;;;;;;;2.90;0.80;;;24.50;89.30;;;;;;5050179;28;20035;-72
2022/07/03 08:06:16;;;;;;;2.88;0.80;;;24.60;85.60;;;;;;5045226;28;20112;-72
2022/07/03 08:08:42;;;;;;;2.20;0.70;;;24.70;84.80;;;;;;5048786;28;20204;-73
2022/07/03 08:11:08;;;;;;;1.65;1.00;;;24.80;84.40;;;;;;5043857;28;20170;-72
2022/07/03 08:13:34;;;;;;;1.77;0.70;;;24.90;84.20;;;;;;5034483;28;20074;-73
2022/07/03 08:15:59;;;;;;;2.85;0.80;;;25.00;84.30;;;;;;5050334;28;20078;-75
2022/07/03 08:18:25;;;;;;;2.20;0.68;;;25.00;84.00;;;;;;5053854;28;20041;-73
2022/07/03 08:20:51;;;;;;;2.50;0.70;;;25.10;82.60;;;;;;5042781;28;20032;-73
2022/07/03 08:23:16;;;;;;;1.00;0.63;;;25.20;81.60;;;;;;5048008;28;20076;-72
2022/07/03 08:25:42;;;;;;;1.17;0.98;;;25.30;80.00;;;;;;5047695;28;20045;-73
2022/07/03 08:28:08;;;;;;;0.98;0.60;;;25.30;78.10;;;;;;5049616;28;20017;-72
2022/07/03 08:30:34;;;;;;;0.70;0.70;;;25.30;77.30;;;;;;5048598;28;20025;-73
2022/07/03 08:33:00;;;;;;;1.27;0.80;;;25.40;76.90;;;;;;5054195;28;20039;-72
2022/07/03 08:35:27;;;;;;;7.05;0.90;;;25.50;77.00;;;;;;5053675;28;20035;-74
2022/07/03 08:37:53;;;;;;;1.13;0.50;;;25.60;76.50;;;;;;5044037;28;20021;-73
2022/07/03 08:40:20;;;;;;;1.83;0.85;;;25.70;75.00;;;;;;5023725;28;20147;-70
2022/07/03 08:42:47;;;;;;;1.30;0.65;;;25.70;73.50;;;;;;5050301;28;20025;-71
2022/07/03 08:45:18;;;;;;;3.35;0.70;;;25.80;72.30;;;;;;5052614;28;20025;-70
2022/07/03 08:47:46;;;;;;;3.05;0.73;;;25.80;71.40;;;;;;5051507;28;20049;-72
2022/07/03 08:50:13;;;;;;;1.00;0.68;;;25.80;71.20;;;;;;5023746;28;20048;-70
2022/07/03 08:52:40;;;;;;;5.70;0.80;;;25.80;71.10;;;;;;5050105;28;20029;-72
2022/07/03 08:55:07;;;;;;;6.22;0.77;;;25.90;71.10;;;;;;5043987;28;20238;-72
2022/07/03 08:57:35;;;;;;;0.68;0.68;;;25.90;71.40;;;;;;5045058;28;20032;-73
2022/07/03 09:00:05;;;;;;;1.15;0.65;;;25.90;71.00;;;;;;5046482;28;20457;-73
2022/07/03 09:02:32;;;;;;;1.40;0.50;;;26.00;70.60;;;;;;5048119;28;20032;-73
2022/07/03 09:05:00;;;;;;;1.02;0.60;;;26.00;69.90;;;;;;5052240;28;20028;-73
2022/07/03 09:07:27;;;;;;;1.00;0.55;;;26.10;69.50;;;;;;5032461;28;20039;-72
2022/07/03 09:09:54;;;;;;;1.60;0.70;;;26.10;68.80;;;;;;5052977;28;20062;-74
2022/07/03 09:12:20;;;;;;;0.70;0.60;;;26.20;68.70;;;;;;5049268;28;20550;-74
2022/07/03 09:14:46;;;;;;;0.80;0.55;;;26.30;68.70;;;;;;5045201;28;20082;-73
2022/07/03 09:17:11;;;;;;;0.90;0.60;;;26.40;68.30;;;;;;5049449;28;20091;-73
2022/07/03 09:19:47;;;;;;;2.38;0.82;;;26.40;68.80;;;;;;5050118;28;20091;-73
2022/07/03 09:22:21;;;;;;;0.70;0.70;;;26.40;68.90;;;;;;5040890;28;20021;-73
2022/07/03 09:24:52;;;;;;;1.33;0.75;;;26.50;68.30;;;;;;5047018;28;20032;-74
2022/07/03 09:27:21;;;;;;;3.03;0.82;;;26.50;67.80;;;;;;5053580;28;20057;-74
2022/07/03 09:30:05;;;;;;;2.00;0.90;;;26.50;67.80;;;;;;5044992;28;20111;-73
2022/07/03 09:32:36;;;;;;;2.78;0.90;;;26.50;67.50;;;;;;5042450;28;20128;-73
2022/07/03 09:35:20;;;;;;;1.45;0.70;;;26.40;67.50;;;;;;5044474;28;21361;-74
2022/07/03 09:37:58;;;;;;;0.95;0.70;;;26.40;67.90;;;;;;5054750;28;20032;-73
2022/07/03 09:40:26;;;;;;;1.10;0.85;;;26.50;66.30;;;;;;5019980;28;20029;-73
2022/07/03 09:43:02;;;;;;;3.97;0.70;;;26.60;66.20;;;;;;5030573;28;20033;-73
2022/07/03 09:45:49;;;;;;;1.20;0.63;;;26.60;65.50;;;;;;5027777;28;20035;-74
2022/07/03 09:48:26;;;;;;;1.40;0.80;;;26.70;65.20;;;;;;5048227;28;20020;-73
2022/07/03 09:51:15;;;;;;;1.70;0.50;;;26.70;66.20;;;;;;5048173;28;20034;-73
2022/07/03 09:54:04;;;;;;;3.83;0.85;;;26.80;65.10;;;;;;5037638;28;20527;-74
2022/07/03 09:56:37;;;;;;;2.08;0.63;;;26.70;64.60;;;;;;5041636;28;20133;-73
2022/07/03 09:59:15;;;;;;;1.38;0.70;;;26.70;65.00;;;;;;5052144;28;20021;-74
2022/07/03 10:01:43;;;;;;;2.22;0.80;;;26.70;64.70;;;;;;5053414;28;20025;-72
2022/07/03 10:04:28;;;;;;;0.93;0.70;;;26.70;63.50;;;;;;5052327;28;20033;-73
2022/07/03 10:06:59;;;;;;;1.30;0.80;;;26.80;63.80;;;;;;5045494;28;20041;-72
2022/07/03 10:09:30;;;;;;;1.13;0.68;;;26.80;63.70;;;;;;5050333;28;20033;-73
2022/07/03 10:11:57;;;;;;;5.85;0.70;;;26.90;62.50;;;;;;5059086;28;20107;-72
2022/07/03 10:14:25;;;;;;;0.68;0.52;;;26.90;60.60;;;;;;5052872;28;20033;-74
2022/07/03 10:16:51;;;;;;;1.45;0.60;;;26.90;61.40;;;;;;5047983;28;20392;-73
2022/07/03 10:19:22;;;;;;;1.20;0.50;;;26.90;61.50;;;;;;5059538;28;20028;-74
2022/07/03 10:21:54;;;;;;;1.98;0.82;;;26.90;60.80;;;;;;5048823;28;20025;-74
2022/07/03 10:24:28;;;;;;;1.15;0.50;;;26.90;61.80;;;;;;5049200;28;20055;-76
2022/07/03 10:26:55;;;;;;;1.73;0.70;;;26.90;62.30;;;;;;5045344;28;20441;-75
2022/07/03 10:29:23;;;;;;;1.88;0.50;;;26.90;61.10;;;;;;5032315;28;20017;-74
2022/07/03 10:31:49;;;;;;;1.52;0.50;;;26.90;60.60;;;;;;5037860;28;20050;-75
2022/07/03 10:34:25;;;;;;;1.23;0.73;;;27.00;60.90;;;;;;5027830;28;20033;-75
2022/07/03 10:36:56;;;;;;;1.15;0.70;;;27.10;60.10;;;;;;5045027;28;20183;-75
2022/07/03 10:39:56;;;;;;;0.60;0.60;;;27.00;60.30;;;;;;5053655;28;20124;-75
2022/07/03 10:45:18;;;;;;;2.05;0.60;;;27.00;59.30;;;;;;5051050;28;20125;-75
2022/07/03 10:47:49;;;;;;;0.90;0.80;;;27.10;59.30;;;;;;5049047;28;20636;-75
2022/07/03 10:50:22;;;;;;;0.63;0.63;;;27.10;59.40;;;;;;5056336;28;20024;-75
2022/07/03 10:52:48;;;;;;;1.75;0.77;;;27.10;59.60;;;;;;5048328;28;20037;-74
2022/07/03 10:55:16;;;;;;;2.15;0.60;;;27.10;60.30;;;;;;5051516;28;20033;-75
2022/07/03 10:58:09;;;;;;;0.57;0.57;;;27.20;59.80;;;;;;5037737;28;20035;-77
2022/07/03 11:00:54;;;;;;;0.70;0.50;;;27.20;59.00;;;;;;5023541;28;20070;-77
2022/07/03 11:03:59;;;;;;;0.80;0.70;;;27.10;59.10;;;;;;5052008;28;20020;-76
2022/07/03 11:07:07;;;;;;;1.55;0.90;;;27.20;58.70;;;;;;5052135;28;20055;-73
2022/07/03 11:09:33;;;;;;;1.40;0.70;;;27.10;58.80;;;;;;4997056;28;20067;-76
2022/07/03 11:11:59;;;;;;;1.40;0.80;;;27.10;59.10;;;;;;5048067;28;20052;-74
2022/07/03 11:14:25;;;;;;;0.70;0.70;;;27.10;59.10;;;;;;5049225;28;20020;-75
2022/07/03 11:17:19;;;;;;;4.18;0.80;;;27.20;58.80;;;;;;5051883;28;20028;-74
2022/07/03 11:20:23;;;;;;;1.00;0.60;;;27.20;58.90;;;;;;5052764;28;20391;-75
2022/07/03 11:23:07;;;;;;;1.00;0.57;;;27.30;59.40;;;;;;5056622;28;20033;-75
2022/07/03 11:25:39;;;;;;;1.00;0.70;;;27.40;58.90;;;;;;5047677;28;20024;-75
2022/07/03 11:28:05;;;;;;;1.83;0.93;;;27.50;58.60;;;;;;5068508;28;20481;-72
2022/07/03 11:30:34;;;;;;;1.88;0.70;;;27.50;62.50;;;;;;5051921;28;20033;-73
2022/07/03 11:33:01;;;;;;;2.00;0.85;;;27.40;61.70;;;;;;5055399;28;20029;-74
2022/07/03 11:35:46;;;;;;;1.60;0.90;;;27.40;61.40;;;;;;5052615;28;20541;-74
2022/07/03 11:38:14;;;;;;;1.98;0.77;;;27.40;59.30;;;;;;5056705;28;20027;-75
2022/07/03 11:40:43;;;;;;;0.80;0.65;;;27.40;59.90;;;;;;5049355;28;20025;-76
2022/07/03 11:43:09;;;;;;;1.40;0.60;;;27.40;59.50;;;;;;5052477;28;20018;-76
2022/07/03 11:45:38;;;;;;;0.55;0.55;;;27.40;58.60;;;;;;5056537;28;20067;-77
2022/07/03 11:48:16;;;;;;;1.17;0.90;;;27.40;58.60;;;;;;5053843;28;20091;-76
2022/07/03 11:50:45;;;;;;;2.35;1.15;;;27.40;58.50;;;;;;5047428;28;20609;-75
2022/07/03 11:53:25;;;;;;;3.47;1.00;;;27.40;59.00;;;;;;5055274;28;20028;-75
2022/07/03 11:55:52;;;;;;;1.65;0.70;;;27.50;58.50;;;;;;5068286;23;20163;-75
2022/07/03 11:58:18;;;;;;;3.42;0.80;;;27.50;58.00;;;;;;5073235;28;20067;-75
2022/07/03 12:00:44;;;;;;;2.97;0.95;;;27.50;57.50;;;;;;5052431;28;20524;-74
2022/07/03 12:03:15;;;;;;;1.40;0.82;;;27.50;57.30;;;;;;5064926;28;20024;-74
2022/07/03 12:05:58;;;;;;;2.20;0.90;;;27.50;57.50;;;;;;5063133;28;20026;-73
2022/07/03 12:08:32;;;;;;;2.70;0.80;;;27.50;58.00;;;;;;5059187;28;20062;-73
2022/07/03 12:11:00;;;;;;;1.25;0.70;;;27.40;58.00;;;;;;5058765;28;20017;-73
2022/07/03 12:13:27;;;;;;;3.30;0.98;;;27.40;58.10;;;;;;5062031;28;20028;-73
2022/07/03 12:15:53;;;;;;;2.05;0.73;;;27.40;58.50;;;;;;5063746;28;20024;-74
2022/07/03 12:18:19;;;;;;;1.75;0.80;;;27.40;58.00;;;;;;5063356;28;20028;-74
2022/07/03 12:20:44;;;;;;;3.67;1.08;;;27.50;58.20;;;;;;5063035;28;20032;-74
2022/07/03 12:23:10;;;;;;;3.35;1.75;;;27.50;58.40;;;;;;5067127;28;20378;-74
2022/07/03 12:25:43;;;;;;;1.88;1.00;;;27.60;58.60;;;;;;5063465;28;20496;-74
2022/07/03 12:28:10;;;;;;;6.80;1.23;;;27.70;57.90;;;;;;5067063;28;20020;-73
2022/07/03 12:30:37;;;;;;;5.38;0.80;;;27.80;58.00;;;;;;5063059;28;20082;-74
2022/07/03 12:33:04;;;;;;;2.50;1.05;;;27.80;58.20;;;;;;5061290;28;20016;-75
2022/07/03 12:35:30;;;;;;;1.05;0.95;;;27.90;57.80;;;;;;5063001;28;20029;-75
2022/07/03 12:37:57;;;;;;;2.92;1.58;;;27.90;57.60;;;;;;5057742;28;20102;-75
2022/07/03 12:40:22;;;;;;;1.83;0.80;;;28.00;56.90;;;;;;5046092;28;20024;-73
2022/07/03 12:42:50;;;;;;;1.42;0.90;;;28.00;57.00;;;;;;5053005;28;20503;-75
2022/07/03 12:45:19;;;;;;;1.90;0.70;;;28.10;58.10;;;;;;5066918;28;20033;-75
2022/07/03 12:47:45;;;;;;;1.00;0.90;;;28.20;58.10;;;;;;5062835;28;20361;-75
2022/07/03 12:50:11;;;;;;;1.13;0.90;;;28.20;57.60;;;;;;5064289;28;20588;-74
2022/07/03 12:52:50;;;;;;;3.05;0.70;;;28.30;57.70;;;;;;5063896;28;20024;-74
2022/07/03 12:55:29;;;;;;;3.55;0.93;;;28.30;57.10;;;;;;5062333;28;20725;-75
2022/07/03 13:00:58;;;;;;;2.53;0.88;;;28.30;56.90;;;;;;5059388;28;20094;-76
2022/07/03 13:03:33;;;;;;;1.15;0.90;;;28.40;56.50;;;;;;5045419;28;20412;-76
2022/07/03 13:05:59;;;;;;;1.38;0.90;;;28.40;56.60;;;;;;5063987;28;20025;-77
2022/07/03 13:08:25;;;;;;;2.72;1.08;;;28.30;56.50;;;;;;5066937;28;20069;-68
2022/07/03 13:10:58;;;;;;;1.33;1.15;;;28.30;57.70;;;;;;5043693;28;20025;-69
2022/07/03 13:13:24;;;;;;;3.47;1.00;;;28.30;60.00;;;;;;5063461;28;20381;-71
2022/07/03 13:15:50;;;;;;;2.15;0.70;;;28.20;62.50;;;;;;5061755;28;20147;-68